DILIA BGCO-ENJA
Flight info
| Callsign | DILIA |
|---|---|
| Flight time | 0h 54m |
| Altitude | 29000 |
| Route | GAKBA DCT 71N009W |
| Aircraft | C525/L-SDFGRWY/S |
Departure
| Time | 2026-05-09 10:02 |
|---|---|
| Airport | Neerlerit Inaat Airport (BGCO) |
Arrival
| Time | 2026-05-09 10:56 |
|---|---|
| Airport | Jan Mayensfield (ENJA) |
| Time | Latitude | Longitude | Altitude | Speed | Heading |
|---|---|---|---|---|---|
| 2026-05-09 09:50 | 70.74353 | -22.64693 | -7 ft | 0 kts | 143° |
| 2026-05-09 09:59 | 70.74352 | -22.64691 | -7 ft | 0 kts | 150° |
| 2026-05-09 09:59 | 70.74339 | -22.64726 | -7 ft | 7 kts | 261° |
| 2026-05-09 10:00 | 70.74335 | -22.64858 | -6 ft | 4 kts | 261° |
| 2026-05-09 10:00 | 70.74329 | -22.64910 | -5 ft | 2 kts | 242° |
| 2026-05-09 10:00 | 70.74315 | -22.65004 | -5 ft | 9 kts | 246° |
| 2026-05-09 10:00 | 70.74313 | -22.65033 | -4 ft | 0 kts | 261° |
| 2026-05-09 10:01 | 70.74312 | -22.65070 | -4 ft | 4 kts | 278° |
| 2026-05-09 10:01 | 70.74363 | -22.65144 | -3 ft | 13 kts | 340° |
| 2026-05-09 10:01 | 70.74484 | -22.65267 | 0 ft | 23 kts | 341° |
| 2026-05-09 10:01 | 70.74538 | -22.65328 | 1 ft | 4 kts | 154° |
| 2026-05-09 10:02 | 70.74526 | -22.65319 | 1 ft | 10 kts | 156° |
| 2026-05-09 10:02 | 70.74184 | -22.64881 | -8 ft | 93 kts | 156° |
| 2026-05-09 10:02 | 70.73564 | -22.63578 | 311 ft | 122 kts | 118° |
| 2026-05-09 10:02 | 70.73033 | -22.61343 | 759 ft | 148 kts | 144° |
| 2026-05-09 10:03 | 70.72129 | -22.59846 | 1440 ft | 158 kts | 152° |
| 2026-05-09 10:03 | 70.70941 | -22.58475 | 1794 ft | 199 kts | 161° |
| 2026-05-09 10:03 | 70.69511 | -22.57225 | 2287 ft | 229 kts | 164° |
| 2026-05-09 10:03 | 70.68008 | -22.56025 | 3260 ft | 233 kts | 164° |
| 2026-05-09 10:04 | 70.66382 | -22.54720 | 3997 ft | 246 kts | 164° |
| 2026-05-09 10:04 | 70.64725 | -22.53375 | 4834 ft | 253 kts | 164° |
| 2026-05-09 10:04 | 70.63023 | -22.51979 | 5727 ft | 257 kts | 164° |
| 2026-05-09 10:04 | 70.61307 | -22.50642 | 6557 ft | 261 kts | 168° |
| 2026-05-09 10:05 | 70.59506 | -22.51231 | 7418 ft | 262 kts | 199° |
| 2026-05-09 10:05 | 70.57748 | -22.52762 | 8080 ft | 271 kts | 191° |
| 2026-05-09 10:05 | 70.55892 | -22.53765 | 8802 ft | 276 kts | 191° |
| 2026-05-09 10:05 | 70.54020 | -22.54733 | 9544 ft | 279 kts | 191° |
| 2026-05-09 10:06 | 70.52103 | -22.55728 | 10237 ft | 283 kts | 190° |
| 2026-05-09 10:06 | 70.50112 | -22.55260 | 10823 ft | 294 kts | 161° |
| 2026-05-09 10:06 | 70.48434 | -22.51909 | 11447 ft | 299 kts | 133° |
| 2026-05-09 10:06 | 70.47444 | -22.46533 | 12042 ft | 300 kts | 102° |
| 2026-05-09 10:07 | 70.47342 | -22.40352 | 12596 ft | 300 kts | 81° |
| 2026-05-09 10:07 | 70.47633 | -22.34173 | 13179 ft | 301 kts | 76° |
| 2026-05-09 10:07 | 70.48025 | -22.28095 | 13688 ft | 305 kts | 74° |
| 2026-05-09 10:07 | 70.48466 | -22.21842 | 14219 ft | 308 kts | 73° |
| 2026-05-09 10:08 | 70.48919 | -22.15599 | 14768 ft | 310 kts | 72° |
| 2026-05-09 10:08 | 70.49381 | -22.09321 | 15266 ft | 314 kts | 72° |
| 2026-05-09 10:08 | 70.49857 | -22.02895 | 15773 ft | 317 kts | 72° |
| 2026-05-09 10:08 | 70.50331 | -21.96496 | 16241 ft | 320 kts | 72° |
| 2026-05-09 10:09 | 70.50813 | -21.90004 | 16702 ft | 322 kts | 71° |
| 2026-05-09 10:09 | 70.51298 | -21.83459 | 17155 ft | 325 kts | 71° |
| 2026-05-09 10:09 | 70.51786 | -21.76852 | 17548 ft | 329 kts | 71° |
| 2026-05-09 10:09 | 70.52266 | -21.70332 | 17971 ft | 331 kts | 71° |
| 2026-05-09 10:10 | 70.52759 | -21.63608 | 18390 ft | 333 kts | 70° |
| 2026-05-09 10:10 | 70.53253 | -21.56840 | 18793 ft | 336 kts | 70° |
| 2026-05-09 10:10 | 70.53747 | -21.50039 | 19236 ft | 336 kts | 70° |
| 2026-05-09 10:10 | 70.54246 | -21.43144 | 19573 ft | 340 kts | 70° |
| 2026-05-09 10:11 | 70.54748 | -21.36143 | 19886 ft | 345 kts | 70° |
| 2026-05-09 10:11 | 70.55250 | -21.29125 | 20315 ft | 345 kts | 71° |
| 2026-05-09 10:11 | 70.55751 | -21.22086 | 20627 ft | 348 kts | 71° |
| 2026-05-09 10:11 | 70.56253 | -21.14961 | 20980 ft | 350 kts | 71° |
| 2026-05-09 10:12 | 70.56754 | -21.07847 | 21303 ft | 352 kts | 71° |
| 2026-05-09 10:12 | 70.57256 | -21.00645 | 21608 ft | 354 kts | 71° |
| 2026-05-09 10:12 | 70.57758 | -20.93412 | 21941 ft | 356 kts | 71° |
| 2026-05-09 10:12 | 70.58260 | -20.86115 | 22242 ft | 357 kts | 71° |
| 2026-05-09 10:13 | 70.58764 | -20.78779 | 22512 ft | 360 kts | 71° |
| 2026-05-09 10:13 | 70.59255 | -20.71561 | 22837 ft | 361 kts | 70° |
| 2026-05-09 10:13 | 70.59759 | -20.64119 | 23086 ft | 363 kts | 71° |
| 2026-05-09 10:13 | 70.60262 | -20.56619 | 23387 ft | 364 kts | 70° |
| 2026-05-09 10:14 | 70.60759 | -20.49197 | 23607 ft | 367 kts | 70° |
| 2026-05-09 10:14 | 70.61262 | -20.41619 | 23879 ft | 368 kts | 70° |
| 2026-05-09 10:14 | 70.61759 | -20.34060 | 24103 ft | 371 kts | 71° |
| 2026-05-09 10:14 | 70.62256 | -20.26469 | 24363 ft | 372 kts | 71° |
| 2026-05-09 10:15 | 70.62753 | -20.18834 | 24552 ft | 375 kts | 71° |
| 2026-05-09 10:15 | 70.63251 | -20.11113 | 24762 ft | 377 kts | 71° |
| 2026-05-09 10:15 | 70.63740 | -20.03474 | 25052 ft | 375 kts | 71° |
| 2026-05-09 10:15 | 70.64236 | -19.95676 | 25216 ft | 378 kts | 71° |
| 2026-05-09 10:16 | 70.64728 | -19.87896 | 25409 ft | 380 kts | 71° |
| 2026-05-09 10:16 | 70.65214 | -19.80139 | 25674 ft | 379 kts | 71° |
| 2026-05-09 10:16 | 70.65698 | -19.72375 | 25802 ft | 382 kts | 71° |
| 2026-05-09 10:16 | 70.66189 | -19.64437 | 25979 ft | 383 kts | 71° |
| 2026-05-09 10:17 | 70.66670 | -19.56583 | 26169 ft | 384 kts | 71° |
| 2026-05-09 10:17 | 70.67152 | -19.48682 | 26378 ft | 384 kts | 71° |
| 2026-05-09 10:17 | 70.67621 | -19.40923 | 26515 ft | 387 kts | 71° |
| 2026-05-09 10:17 | 70.68095 | -19.33012 | 26707 ft | 387 kts | 72° |
| 2026-05-09 10:18 | 70.68581 | -19.24857 | 26862 ft | 388 kts | 72° |
| 2026-05-09 10:18 | 70.69057 | -19.16807 | 26961 ft | 391 kts | 72° |
| 2026-05-09 10:18 | 70.69527 | -19.08755 | 27131 ft | 391 kts | 72° |
| 2026-05-09 10:18 | 70.69997 | -19.00681 | 27249 ft | 392 kts | 72° |
| 2026-05-09 10:19 | 70.70465 | -18.92566 | 27394 ft | 392 kts | 72° |
| 2026-05-09 10:19 | 70.70928 | -18.84471 | 27517 ft | 393 kts | 72° |
| 2026-05-09 10:19 | 70.71390 | -18.76324 | 27628 ft | 394 kts | 72° |
| 2026-05-09 10:19 | 70.71849 | -18.68157 | 27788 ft | 393 kts | 72° |
| 2026-05-09 10:20 | 70.72299 | -18.60097 | 27879 ft | 395 kts | 72° |
| 2026-05-09 10:20 | 70.72748 | -18.51981 | 27974 ft | 396 kts | 72° |
| 2026-05-09 10:20 | 70.73204 | -18.43654 | 28128 ft | 394 kts | 73° |
| 2026-05-09 10:20 | 70.73639 | -18.35625 | 28410 ft | 389 kts | 73° |
| 2026-05-09 10:21 | 70.74077 | -18.27514 | 28499 ft | 391 kts | 74° |
| 2026-05-09 10:21 | 70.74940 | -18.11303 | 28673 ft | 393 kts | 74° |
| 2026-05-09 10:21 | 70.75369 | -18.03141 | 28793 ft | 393 kts | 74° |
| 2026-05-09 10:22 | 70.75796 | -17.94954 | 28880 ft | 394 kts | 74° |
| 2026-05-09 10:22 | 70.76634 | -17.78622 | 29092 ft | 394 kts | 74° |
| 2026-05-09 10:23 | 70.77466 | -17.62147 | 29211 ft | 397 kts | 74° |
| 2026-05-09 10:23 | 70.78287 | -17.45584 | 29272 ft | 401 kts | 75° |
| 2026-05-09 10:24 | 70.79099 | -17.28856 | 29278 ft | 405 kts | 76° |
| 2026-05-09 10:24 | 70.79906 | -17.11916 | 29275 ft | 408 kts | 76° |
| 2026-05-09 10:25 | 70.80706 | -16.94750 | 29274 ft | 411 kts | 76° |
| 2026-05-09 10:25 | 70.81484 | -16.77686 | 29276 ft | 412 kts | 76° |
| 2026-05-09 10:26 | 70.82257 | -16.60405 | 29273 ft | 413 kts | 76° |
| 2026-05-09 10:26 | 70.83011 | -16.43147 | 29271 ft | 413 kts | 77° |
| 2026-05-09 10:27 | 70.83752 | -16.25814 | 29276 ft | 413 kts | 78° |
| 2026-05-09 10:27 | 70.84473 | -16.08548 | 29270 ft | 413 kts | 78° |
| 2026-05-09 10:28 | 70.85169 | -15.91523 | 29272 ft | 413 kts | 78° |
| 2026-05-09 10:28 | 70.85857 | -15.74264 | 29265 ft | 412 kts | 78° |
| 2026-05-09 10:29 | 70.86527 | -15.57048 | 29260 ft | 412 kts | 78° |
| 2026-05-09 10:29 | 70.87186 | -15.39699 | 29252 ft | 412 kts | 78° |
| 2026-05-09 10:30 | 70.87820 | -15.22605 | 29242 ft | 411 kts | 79° |
| 2026-05-09 10:30 | 70.88447 | -15.05194 | 29231 ft | 411 kts | 80° |
| 2026-05-09 10:31 | 70.89055 | -14.87890 | 29249 ft | 410 kts | 80° |
| 2026-05-09 10:31 | 70.89643 | -14.70646 | 29235 ft | 410 kts | 80° |
| 2026-05-09 10:32 | 70.90217 | -14.53383 | 29237 ft | 410 kts | 80° |
| 2026-05-09 10:32 | 70.90774 | -14.36115 | 29243 ft | 410 kts | 80° |
| 2026-05-09 10:33 | 70.91312 | -14.18917 | 29242 ft | 409 kts | 81° |
| 2026-05-09 10:33 | 70.91837 | -14.01607 | 29243 ft | 409 kts | 82° |
| 2026-05-09 10:34 | 70.92347 | -13.84272 | 29234 ft | 409 kts | 82° |
| 2026-05-09 10:34 | 70.93070 | -13.58653 | 29230 ft | 408 kts | 82° |
| 2026-05-09 10:35 | 70.93534 | -13.41534 | 29227 ft | 407 kts | 82° |
| 2026-05-09 10:35 | 70.93984 | -13.24322 | 29193 ft | 408 kts | 83° |
| 2026-05-09 10:36 | 70.94205 | -13.15581 | 28800 ft | 409 kts | 83° |
| 2026-05-09 10:36 | 70.94418 | -13.07058 | 28384 ft | 402 kts | 83° |
| 2026-05-09 10:36 | 70.94625 | -12.98596 | 27975 ft | 395 kts | 83° |
| 2026-05-09 10:36 | 70.94824 | -12.90315 | 27570 ft | 390 kts | 83° |
| 2026-05-09 10:37 | 70.95018 | -12.82082 | 27156 ft | 385 kts | 83° |
| 2026-05-09 10:37 | 70.95204 | -12.74051 | 26749 ft | 381 kts | 84° |
| 2026-05-09 10:37 | 70.95385 | -12.66086 | 26357 ft | 376 kts | 84° |
| 2026-05-09 10:37 | 70.95562 | -12.58135 | 25954 ft | 373 kts | 84° |
| 2026-05-09 10:38 | 70.95735 | -12.50234 | 25543 ft | 369 kts | 84° |
| 2026-05-09 10:38 | 70.95901 | -12.42492 | 25107 ft | 366 kts | 84° |
| 2026-05-09 10:38 | 70.96059 | -12.34979 | 24624 ft | 364 kts | 85° |
| 2026-05-09 10:38 | 70.96215 | -12.27401 | 24132 ft | 361 kts | 85° |
| 2026-05-09 10:39 | 70.96369 | -12.19727 | 23631 ft | 359 kts | 85° |
| 2026-05-09 10:39 | 70.96519 | -12.12136 | 23128 ft | 356 kts | 85° |
| 2026-05-09 10:39 | 70.96665 | -12.04629 | 22632 ft | 354 kts | 85° |
| 2026-05-09 10:39 | 70.96806 | -11.97150 | 22129 ft | 352 kts | 85° |
| 2026-05-09 10:40 | 70.96945 | -11.89689 | 21632 ft | 350 kts | 85° |
| 2026-05-09 10:40 | 70.97079 | -11.82316 | 21126 ft | 349 kts | 85° |
| 2026-05-09 10:40 | 70.97209 | -11.74967 | 20623 ft | 347 kts | 85° |
| 2026-05-09 10:40 | 70.97338 | -11.67560 | 20118 ft | 345 kts | 85° |
| 2026-05-09 10:41 | 70.97461 | -11.60273 | 19616 ft | 343 kts | 85° |
| 2026-05-09 10:41 | 70.97581 | -11.53059 | 19163 ft | 340 kts | 85° |
| 2026-05-09 10:41 | 70.97698 | -11.45778 | 18708 ft | 338 kts | 85° |
| 2026-05-09 10:41 | 70.97811 | -11.38659 | 18254 ft | 336 kts | 85° |
| 2026-05-09 10:42 | 70.97920 | -11.31613 | 17805 ft | 334 kts | 86° |
| 2026-05-09 10:42 | 70.98025 | -11.24528 | 17355 ft | 332 kts | 86° |
| 2026-05-09 10:42 | 70.98128 | -11.17496 | 16902 ft | 330 kts | 86° |
| 2026-05-09 10:42 | 70.98229 | -11.10507 | 16453 ft | 329 kts | 86° |
| 2026-05-09 10:43 | 70.98324 | -11.03595 | 16000 ft | 327 kts | 86° |
| 2026-05-09 10:43 | 70.98418 | -10.96692 | 15552 ft | 326 kts | 86° |
| 2026-05-09 10:43 | 70.98509 | -10.89716 | 15094 ft | 325 kts | 86° |
| 2026-05-09 10:43 | 70.98596 | -10.82891 | 14641 ft | 323 kts | 86° |
| 2026-05-09 10:44 | 70.98682 | -10.75964 | 14191 ft | 322 kts | 86° |
| 2026-05-09 10:44 | 70.98765 | -10.69169 | 13791 ft | 319 kts | 86° |
| 2026-05-09 10:44 | 70.98843 | -10.62385 | 13390 ft | 317 kts | 86° |
| 2026-05-09 10:44 | 70.98919 | -10.55697 | 12990 ft | 316 kts | 86° |
| 2026-05-09 10:45 | 70.98991 | -10.49016 | 12589 ft | 315 kts | 86° |
| 2026-05-09 10:46 | 70.99258 | -10.22416 | 10990 ft | 306 kts | 87° |
| 2026-05-09 10:46 | 70.99316 | -10.16038 | 10573 ft | 294 kts | 87° |
| 2026-05-09 10:46 | 70.99371 | -10.09940 | 10164 ft | 285 kts | 87° |
| 2026-05-09 10:46 | 70.99422 | -10.03924 | 9756 ft | 279 kts | 87° |
| 2026-05-09 10:47 | 70.99470 | -9.98055 | 9393 ft | 272 kts | 86° |
| 2026-05-09 10:47 | 70.99515 | -9.92335 | 9036 ft | 267 kts | 86° |
| 2026-05-09 10:47 | 70.99558 | -9.86664 | 8682 ft | 263 kts | 86° |
| 2026-05-09 10:47 | 70.99597 | -9.81145 | 8335 ft | 260 kts | 86° |
| 2026-05-09 10:48 | 70.99635 | -9.75614 | 7983 ft | 258 kts | 86° |
| 2026-05-09 10:48 | 70.99672 | -9.70162 | 7635 ft | 256 kts | 86° |
| 2026-05-09 10:48 | 70.99706 | -9.64829 | 7290 ft | 254 kts | 85° |
| 2026-05-09 10:48 | 70.99739 | -9.59306 | 6937 ft | 253 kts | 85° |
| 2026-05-09 10:49 | 70.99770 | -9.53913 | 6589 ft | 252 kts | 85° |
| 2026-05-09 10:49 | 70.99799 | -9.48609 | 6247 ft | 251 kts | 85° |
| 2026-05-09 10:49 | 70.99827 | -9.43249 | 5899 ft | 250 kts | 85° |
| 2026-05-09 10:49 | 70.99852 | -9.37954 | 5554 ft | 249 kts | 85° |
| 2026-05-09 10:50 | 70.99876 | -9.32698 | 5268 ft | 246 kts | 86° |
| 2026-05-09 10:50 | 70.99899 | -9.27494 | 4998 ft | 242 kts | 85° |
| 2026-05-09 10:50 | 70.99919 | -9.22412 | 4734 ft | 240 kts | 85° |
| 2026-05-09 10:50 | 70.99938 | -9.17287 | 4482 ft | 237 kts | 85° |
| 2026-05-09 10:51 | 70.99956 | -9.12293 | 4239 ft | 234 kts | 85° |
| 2026-05-09 10:51 | 70.99972 | -9.07295 | 3996 ft | 232 kts | 85° |
| 2026-05-09 10:51 | 70.99972 | -9.02410 | 3758 ft | 231 kts | 87° |
| 2026-05-09 10:51 | 70.99813 | -8.97542 | 3592 ft | 228 kts | 94° |
| 2026-05-09 10:52 | 70.99571 | -8.92747 | 3426 ft | 225 kts | 94° |
| 2026-05-09 10:52 | 70.99331 | -8.88043 | 3264 ft | 222 kts | 94° |
| 2026-05-09 10:52 | 70.99110 | -8.83459 | 3103 ft | 219 kts | 93° |
| 2026-05-09 10:52 | 70.98898 | -8.78824 | 2942 ft | 217 kts | 92° |
| 2026-05-09 10:53 | 70.98696 | -8.74262 | 2776 ft | 215 kts | 91° |
| 2026-05-09 10:53 | 70.98460 | -8.69775 | 2614 ft | 217 kts | 100° |
| 2026-05-09 10:53 | 70.97630 | -8.65828 | 2437 ft | 226 kts | 136° |
| 2026-05-09 10:53 | 70.96220 | -8.63865 | 2294 ft | 227 kts | 162° |
| 2026-05-09 10:54 | 70.94714 | -8.62512 | 2115 ft | 227 kts | 173° |
| 2026-05-09 10:54 | 70.93200 | -8.63366 | 1983 ft | 223 kts | 199° |
| 2026-05-09 10:54 | 70.91761 | -8.64708 | 1914 ft | 210 kts | 200° |
| 2026-05-09 10:54 | 70.90724 | -8.66850 | 1941 ft | 148 kts | 255° |
| 2026-05-09 10:55 | 70.90900 | -8.69334 | 1563 ft | 117 kts | 308° |
| 2026-05-09 10:55 | 70.91567 | -8.70383 | 998 ft | 112 kts | 4° |
| 2026-05-09 10:55 | 70.92251 | -8.69708 | 669 ft | 103 kts | 18° |
| 2026-05-09 10:55 | 70.92873 | -8.68907 | 393 ft | 95 kts | 23° |
| 2026-05-09 10:56 | 70.93391 | -8.67755 | 178 ft | 86 kts | 28° |
| 2026-05-09 10:56 | 70.93851 | -8.66670 | 38 ft | 84 kts | 33° |
| 2026-05-09 10:56 | 70.94263 | -8.65628 | 9 ft | 66 kts | 40° |
| 2026-05-09 10:56 | 70.94534 | -8.64925 | 27 ft | 34 kts | 40° |
| 2026-05-09 10:57 | 70.94657 | -8.64605 | 32 ft | 7 kts | 9° |
| 2026-05-09 10:57 | 70.94652 | -8.64638 | 32 ft | 5 kts | 213° |
| 2026-05-09 10:57 | 70.94594 | -8.64782 | 30 ft | 15 kts | 218° |
| 2026-05-09 10:57 | 70.94481 | -8.65057 | 24 ft | 25 kts | 216° |
| 2026-05-09 10:58 | 70.94337 | -8.65419 | 14 ft | 20 kts | 216° |
| 2026-05-09 10:58 | 70.94248 | -8.65658 | 8 ft | 17 kts | 217° |
| 2026-05-09 10:58 | 70.94152 | -8.65917 | 4 ft | 15 kts | 234° |
| 2026-05-09 10:58 | 70.94179 | -8.66045 | 3 ft | 0 kts | 26° |